createdAt,value
2022-08-11T00:01:15.789Z,25.60
2022-08-11T00:03:48.598Z,25.60
2022-08-11T00:06:24.834Z,25.60
2022-08-11T00:08:54.361Z,25.50
2022-08-11T00:11:26.422Z,25.50
2022-08-11T00:13:56.129Z,25.50
2022-08-11T00:16:26.438Z,25.50
2022-08-11T00:18:59.779Z,25.40
2022-08-11T00:22:02.908Z,25.40
2022-08-11T00:24:20.341Z,25.40
2022-08-11T00:26:52.936Z,25.40
2022-08-11T00:29:23.125Z,25.30
2022-08-11T00:31:53.340Z,25.30
2022-08-11T00:34:27.914Z,25.30
2022-08-11T00:37:01.214Z,25.30
2022-08-11T00:39:33.003Z,25.20
2022-08-11T00:42:15.275Z,25.20
2022-08-11T00:44:58.804Z,25.20
2022-08-11T00:47:41.291Z,25.20
2022-08-11T00:50:25.716Z,25.10
2022-08-11T00:53:27.217Z,25.10
2022-08-11T00:56:36.279Z,25.10
2022-08-11T00:59:35.555Z,25.10
2022-08-11T01:02:19.397Z,25.00
2022-08-11T01:05:39.074Z,24.90
2022-08-11T01:08:53.539Z,24.90
2022-08-11T01:11:55.243Z,24.90
2022-08-11T01:14:54.458Z,24.90
2022-08-11T01:18:04.331Z,24.90
2022-08-11T01:21:04.706Z,24.80
2022-08-11T01:24:10.983Z,24.80
2022-08-11T01:27:18.849Z,24.70
2022-08-11T01:30:25.294Z,24.80
2022-08-11T01:33:26.778Z,24.70
2022-08-11T01:36:30.312Z,24.70
2022-08-11T01:39:34.720Z,24.60
2022-08-11T01:42:40.931Z,24.60
2022-08-11T01:45:22.487Z,24.60
2022-08-11T01:48:05.125Z,24.50
2022-08-11T01:50:46.890Z,24.50
2022-08-11T01:53:28.547Z,24.40
2022-08-11T01:56:10.587Z,24.40
2022-08-11T01:58:45.665Z,24.40
2022-08-11T02:01:29.645Z,24.30
2022-08-11T02:04:07.300Z,24.30
2022-08-11T02:06:58.567Z,24.30
2022-08-11T02:09:49.678Z,24.20
2022-08-11T02:12:35.903Z,24.20
2022-08-11T02:15:14.098Z,24.20
2022-08-11T02:17:52.627Z,24.10
2022-08-11T02:20:45.278Z,24.10
2022-08-11T02:24:05.130Z,24.10
2022-08-11T02:26:41.467Z,24.10
2022-08-11T02:29:18.172Z,24.00
2022-08-11T02:32:28.707Z,24.00
2022-08-11T02:35:05.492Z,23.90
2022-08-11T02:37:45.555Z,24.00
2022-08-11T02:40:23.089Z,23.90
2022-08-11T02:43:04.445Z,23.90
2022-08-11T02:45:55.586Z,23.80
2022-08-11T02:48:52.563Z,23.80
2022-08-11T02:51:31.040Z,23.70
2022-08-11T02:54:07.458Z,23.70
2022-08-11T02:56:50.255Z,23.70
2022-08-11T02:59:45.728Z,23.60
2022-08-11T03:02:28.183Z,23.60
2022-08-11T03:05:17.747Z,23.60
2022-08-11T03:08:04.825Z,23.50
2022-08-11T03:10:43.563Z,23.50
2022-08-11T03:13:36.805Z,23.50
2022-08-11T03:16:34.486Z,23.50
2022-08-11T03:19:13.158Z,23.40
2022-08-11T03:22:03.120Z,23.40
2022-08-11T03:24:41.973Z,23.40
2022-08-11T03:27:13.070Z,23.30
2022-08-11T03:29:59.675Z,23.30
2022-08-11T03:32:33.987Z,23.30
2022-08-11T03:35:03.504Z,23.30
2022-08-11T03:37:52.930Z,23.20
2022-08-11T03:41:49.362Z,23.20
2022-08-11T03:44:05.572Z,23.20
2022-08-11T03:46:49.121Z,23.20
2022-08-11T03:49:32.331Z,23.10
2022-08-11T03:52:13.319Z,23.10
2022-08-11T03:54:51.815Z,23.10
2022-08-11T03:58:16.626Z,23.10
2022-08-11T04:01:08.968Z,23.00
2022-08-11T04:04:02.333Z,23.00
2022-08-11T04:07:05.158Z,23.00
2022-08-11T04:10:08.467Z,22.90
2022-08-11T04:13:32.255Z,22.80
2022-08-11T04:16:30.632Z,22.80
2022-08-11T04:19:31.422Z,22.70
2022-08-11T04:22:23.868Z,22.70
2022-08-11T04:25:31.033Z,22.60
2022-08-11T04:28:49.915Z,22.60
2022-08-11T04:31:50.754Z,22.60
2022-08-11T04:34:53.178Z,22.60
2022-08-11T04:37:44.830Z,22.60
2022-08-11T04:41:16.830Z,22.60
2022-08-11T04:44:21.547Z,22.60
2022-08-11T04:48:03.616Z,22.60
2022-08-11T04:51:00.679Z,22.60
2022-08-11T04:54:09.051Z,22.60
2022-08-11T04:56:58.090Z,22.60
2022-08-11T05:00:11.778Z,22.60
2022-08-11T05:03:15.455Z,22.60
2022-08-11T05:06:11.046Z,22.60
2022-08-11T05:09:15.236Z,22.60
2022-08-11T05:12:13.011Z,22.60
2022-08-11T05:15:06.984Z,22.60
2022-08-11T05:17:59.593Z,22.60
2022-08-11T05:20:46.685Z,22.60
2022-08-11T05:23:33.191Z,22.60
2022-08-11T05:26:46.698Z,22.50
2022-08-11T05:29:44.398Z,22.50
2022-08-11T05:32:34.990Z,22.50
2022-08-11T05:35:07.590Z,22.50
2022-08-11T05:37:57.681Z,22.50
2022-08-11T05:40:50.930Z,22.40
2022-08-11T05:44:19.817Z,22.40
2022-08-11T05:46:49.443Z,22.40
2022-08-11T05:49:35.922Z,22.40
2022-08-11T05:52:33.957Z,22.40
2022-08-11T05:55:29.130Z,22.50
2022-08-11T05:57:58.971Z,22.50
2022-08-11T06:00:29.143Z,22.50
2022-08-11T06:03:02.462Z,22.50
2022-08-11T06:05:38.554Z,21.50
2022-08-11T06:08:13.857Z,22.60
2022-08-11T06:10:44.920Z,22.60
2022-08-11T06:13:18.587Z,22.60
2022-08-11T06:15:49.924Z,22.70
2022-08-11T06:18:19.536Z,22.70
2022-08-11T06:20:49.640Z,22.70
2022-08-11T06:23:21.113Z,22.80
2022-08-11T06:25:51.591Z,22.90
2022-08-11T06:28:22.704Z,22.90
2022-08-11T06:30:52.898Z,22.90
2022-08-11T06:33:32.770Z,23.00
2022-08-11T06:36:08.315Z,23.00
2022-08-11T06:38:57.928Z,23.10
2022-08-11T06:41:32.214Z,23.20
2022-08-11T06:44:21.583Z,23.20
2022-08-11T06:46:56.468Z,23.30
2022-08-11T06:49:53.057Z,23.40
2022-08-11T06:52:34.630Z,23.50
2022-08-11T06:55:12.638Z,23.50
2022-08-11T06:58:14.392Z,23.60
2022-08-11T07:00:43.305Z,23.70
2022-08-11T07:03:18.018Z,23.70
2022-08-11T07:05:50.033Z,23.80
2022-08-11T07:09:09.344Z,23.90
2022-08-11T07:12:19.925Z,23.90
2022-08-11T07:15:11.445Z,24.10
2022-08-11T07:17:50.130Z,24.10
2022-08-11T07:20:38.277Z,24.10
2022-08-11T07:23:28.247Z,24.20
2022-08-11T07:26:18.311Z,24.30
2022-08-11T07:28:59.633Z,24.40
2022-08-11T07:31:36.531Z,24.40
2022-08-11T07:34:18.185Z,24.50
2022-08-11T07:36:53.007Z,24.70
2022-08-11T07:39:23.329Z,24.60
2022-08-11T07:41:54.326Z,24.60
2022-08-11T07:44:29.349Z,24.70
2022-08-11T07:47:19.310Z,24.70
2022-08-11T07:50:09.156Z,24.80
2022-08-11T07:52:41.045Z,24.80
2022-08-11T07:55:14.914Z,24.80
2022-08-11T07:58:19.923Z,24.90
2022-08-11T08:01:10.303Z,24.90
2022-08-11T08:04:03.493Z,24.90
2022-08-11T08:06:53.103Z,25.00
2022-08-11T08:09:41.681Z,25.00
2022-08-11T08:12:28.298Z,25.10
2022-08-11T08:15:15.539Z,25.10
2022-08-11T08:18:08.323Z,25.10
2022-08-11T08:20:50.520Z,25.20
2022-08-11T08:23:33.993Z,25.20
2022-08-11T08:26:27.016Z,25.30
2022-08-11T08:29:18.830Z,25.30
2022-08-11T08:31:48.540Z,25.40
2022-08-11T08:34:18.150Z,25.40
2022-08-11T08:36:48.682Z,25.50
2022-08-11T08:39:22.232Z,25.50
2022-08-11T08:41:56.154Z,25.50
2022-08-11T08:44:44.961Z,25.50
2022-08-11T08:47:38.786Z,25.50
2022-08-11T08:50:16.288Z,25.60
2022-08-11T08:52:59.791Z,25.60
2022-08-11T08:55:30.402Z,25.70
2022-08-11T08:58:01.287Z,25.70
2022-08-11T09:00:41.643Z,25.70
2022-08-11T09:03:38.554Z,25.70
2022-08-11T09:06:01.327Z,25.20
2022-08-11T09:08:33.319Z,25.80
2022-08-11T09:11:20.546Z,25.80
2022-08-11T09:14:04.808Z,25.90
2022-08-11T09:16:37.457Z,25.90
2022-08-11T09:19:06.849Z,25.90
2022-08-11T09:21:48.500Z,26.00
2022-08-11T09:24:35.873Z,26.10
2022-08-11T09:27:08.622Z,26.10
2022-08-11T09:29:40.313Z,26.10
2022-08-11T09:32:09.029Z,26.10
2022-08-11T09:34:40.905Z,26.20
2022-08-11T09:37:54.309Z,26.20
2022-08-11T09:40:30.198Z,26.20
2022-08-11T09:43:17.503Z,26.30
2022-08-11T09:45:51.731Z,26.30
2022-08-11T09:48:21.809Z,26.40
2022-08-11T09:50:51.981Z,26.40
2022-08-11T09:53:36.511Z,26.50
2022-08-11T09:56:23.450Z,26.50
2022-08-11T09:58:52.721Z,26.50
2022-08-11T10:01:29.705Z,26.60
2022-08-11T10:04:01.744Z,26.70
2022-08-11T10:06:54.385Z,26.70
2022-08-11T10:09:25.551Z,26.70
2022-08-11T10:11:58.888Z,26.80
2022-08-11T10:14:46.816Z,26.90
2022-08-11T10:17:18.934Z,26.90
2022-08-11T10:20:05.518Z,27.00
2022-08-11T10:22:52.944Z,27.10
2022-08-11T10:25:40.332Z,27.20
2022-08-11T10:28:28.459Z,27.30
2022-08-11T10:31:17.457Z,27.40
2022-08-11T10:34:03.793Z,27.60
2022-08-11T10:36:34.999Z,27.70
2022-08-11T10:39:06.030Z,27.80
2022-08-11T10:42:06.383Z,28.00
2022-08-11T10:44:39.931Z,28.10
2022-08-11T10:47:27.063Z,28.20
2022-08-11T10:50:15.964Z,28.30
2022-08-11T10:53:03.944Z,28.50
2022-08-11T10:55:50.190Z,28.60
2022-08-11T10:58:37.827Z,28.70
2022-08-11T11:01:06.351Z,28.80
2022-08-11T11:03:37.314Z,29.00
2022-08-11T11:06:28.791Z,29.10
2022-08-11T11:09:06.489Z,29.30
2022-08-11T11:11:58.198Z,29.40
2022-08-11T11:14:56.534Z,29.50
2022-08-11T11:17:49.437Z,29.70
2022-08-11T11:20:36.563Z,29.80
2022-08-11T11:23:17.825Z,29.90
2022-08-11T11:26:11.327Z,30.00
2022-08-11T11:29:20.408Z,30.10
2022-08-11T11:32:11.282Z,30.30
2022-08-11T11:35:16.805Z,30.40
2022-08-11T11:38:03.439Z,30.60
2022-08-11T11:40:37.154Z,30.70
2022-08-11T11:43:06.482Z,30.80
2022-08-11T11:45:35.213Z,30.90
2022-08-11T11:48:04.691Z,31.00
2022-08-11T11:50:35.837Z,31.10
2022-08-11T11:53:07.527Z,31.20
2022-08-11T11:55:37.772Z,31.30
2022-08-11T11:58:24.772Z,31.40
2022-08-11T12:01:12.541Z,31.60
2022-08-11T12:03:41.676Z,31.70
2022-08-11T12:06:14.632Z,31.80
2022-08-11T12:08:44.897Z,31.90
2022-08-11T12:11:32.996Z,32.00
2022-08-11T12:14:10.379Z,32.10
2022-08-11T12:16:42.378Z,32.20
2022-08-11T12:19:13.186Z,32.30
2022-08-11T12:22:04.488Z,32.40
2022-08-11T12:24:53.157Z,32.50
2022-08-11T12:27:39.126Z,32.70
2022-08-11T12:30:09.863Z,32.70
2022-08-11T12:32:41.139Z,32.90
2022-08-11T12:35:11.843Z,33.00
2022-08-11T12:37:43.739Z,33.10
2022-08-11T12:40:43.493Z,33.20
2022-08-11T12:43:42.069Z,33.30
2022-08-11T12:46:13.005Z,33.50
2022-08-11T12:49:04.258Z,33.50
2022-08-11T12:52:11.803Z,33.60
2022-08-11T12:54:59.349Z,33.70
2022-08-11T12:57:49.451Z,33.90
2022-08-11T13:00:37.966Z,33.90
2022-08-11T13:03:26.625Z,34.00
2022-08-11T13:05:57.494Z,34.10
2022-08-11T13:08:28.436Z,34.20
2022-08-11T13:11:17.945Z,34.30
2022-08-11T13:13:54.377Z,33.50
2022-08-11T13:16:29.579Z,34.50
2022-08-11T13:19:01.718Z,34.60
2022-08-11T13:21:31.152Z,34.70
2022-08-11T13:24:03.090Z,34.80
2022-08-11T13:26:47.751Z,34.90
2022-08-11T13:29:22.496Z,35.00
2022-08-11T13:31:54.129Z,35.10
2022-08-11T13:34:25.714Z,35.20
2022-08-11T13:36:56.462Z,35.30
2022-08-11T13:39:28.001Z,35.40
2022-08-11T13:41:59.531Z,35.50
2022-08-11T13:44:30.567Z,35.60
2022-08-11T13:47:03.954Z,35.60
2022-08-11T13:49:33.552Z,35.70
2022-08-11T13:52:02.614Z,35.80
2022-08-11T13:54:34.198Z,35.90
2022-08-11T13:57:09.095Z,35.90
2022-08-11T13:59:51.790Z,36.00
2022-08-11T14:02:30.685Z,36.10
2022-08-11T14:05:07.158Z,36.10
2022-08-11T14:07:39.623Z,36.20
2022-08-11T14:10:10.295Z,36.30
2022-08-11T14:12:58.749Z,36.30
2022-08-11T14:15:32.258Z,36.40
2022-08-11T14:18:06.940Z,36.40
2022-08-11T14:20:55.898Z,36.40
2022-08-11T14:23:29.317Z,36.40
2022-08-11T14:26:15.910Z,36.50
2022-08-11T14:28:45.632Z,36.50
2022-08-11T14:31:15.906Z,36.40
2022-08-11T14:34:00.322Z,36.40
2022-08-11T14:36:33.140Z,36.40
2022-08-11T14:39:05.468Z,36.30
2022-08-11T14:42:10.448Z,36.30
2022-08-11T14:45:03.688Z,36.20
2022-08-11T14:47:35.207Z,36.20
2022-08-11T14:50:12.298Z,36.20
2022-08-11T14:52:47.050Z,36.10
2022-08-11T14:55:33.755Z,36.10
2022-08-11T14:58:03.402Z,36.00
2022-08-11T15:00:33.554Z,36.00
2022-08-11T15:03:10.727Z,35.90
2022-08-11T15:05:56.287Z,35.90
2022-08-11T15:08:42.696Z,35.90
2022-08-11T15:11:26.755Z,35.90
2022-08-11T15:13:57.376Z,35.80
2022-08-11T15:16:45.374Z,35.80
2022-08-11T15:19:16.089Z,35.70
2022-08-11T15:22:03.210Z,35.70
2022-08-11T15:24:31.511Z,35.60
2022-08-11T15:27:19.221Z,35.60
2022-08-11T15:30:06.705Z,35.50
2022-08-11T15:32:53.431Z,35.50
2022-08-11T15:35:39.952Z,35.40
2022-08-11T15:38:15.051Z,35.40
2022-08-11T15:41:02.305Z,35.40
2022-08-11T15:43:54.330Z,35.30
2022-08-11T15:46:29.671Z,35.30
2022-08-11T15:49:00.665Z,35.30
2022-08-11T15:51:34.996Z,35.20
2022-08-11T15:54:09.677Z,35.20
2022-08-11T15:56:42.319Z,35.20
2022-08-11T15:59:40.938Z,35.20
2022-08-11T16:02:32.353Z,35.20
2022-08-11T16:05:05.097Z,35.20
2022-08-11T16:07:40.417Z,35.20
2022-08-11T16:10:15.614Z,35.10
2022-08-11T16:13:21.426Z,35.10
2022-08-11T16:16:10.843Z,35.20
2022-08-11T16:18:47.192Z,35.20
2022-08-11T16:21:26.131Z,35.20
2022-08-11T16:24:05.885Z,35.30
2022-08-11T16:27:11.277Z,35.30
2022-08-11T16:29:31.774Z,35.30
2022-08-11T16:32:21.108Z,35.30
2022-08-11T16:35:12.981Z,35.30
2022-08-11T16:38:00.634Z,35.30
2022-08-11T16:40:29.571Z,35.20
2022-08-11T16:43:18.275Z,35.20
2022-08-11T16:46:05.053Z,35.20
2022-08-11T16:48:38.251Z,35.10
2022-08-11T16:51:08.297Z,35.10
2022-08-11T16:54:03.849Z,35.00
2022-08-11T16:56:30.654Z,34.90
2022-08-11T16:59:16.584Z,34.90
2022-08-11T17:01:53.400Z,34.90
2022-08-11T17:05:05.039Z,34.80
2022-08-11T17:07:51.536Z,34.80
2022-08-11T17:10:53.271Z,34.70
2022-08-11T17:13:29.600Z,34.60
2022-08-11T17:16:09.346Z,34.60
2022-08-11T17:18:44.650Z,34.50
2022-08-11T17:21:16.642Z,34.50
2022-08-11T17:23:47.139Z,34.40
2022-08-11T17:26:20.183Z,34.30
2022-08-11T17:28:51.854Z,34.30
2022-08-11T17:31:40.951Z,34.20
2022-08-11T17:34:27.837Z,34.20
2022-08-11T17:36:57.361Z,34.20
2022-08-11T17:39:30.289Z,34.10
2022-08-11T17:42:18.635Z,34.00
2022-08-11T17:45:05.608Z,34.00
2022-08-11T17:47:53.255Z,33.90
2022-08-11T17:50:22.245Z,33.80
2022-08-11T17:53:09.020Z,33.70
2022-08-11T17:55:57.868Z,33.70
2022-08-11T17:58:45.606Z,33.60
2022-08-11T18:01:14.430Z,33.50
2022-08-11T18:03:53.240Z,33.50
2022-08-11T18:06:34.770Z,33.40
2022-08-11T18:09:24.576Z,33.30
2022-08-11T18:12:13.051Z,33.20
2022-08-11T18:15:02.999Z,33.20
2022-08-11T18:17:49.165Z,33.00
2022-08-11T18:20:37.341Z,32.90
2022-08-11T18:23:41.679Z,32.80
2022-08-11T18:26:36.776Z,32.70
2022-08-11T18:29:26.002Z,32.60
2022-08-11T18:32:21.235Z,32.50
2022-08-11T18:35:11.467Z,32.40
2022-08-11T18:38:03.909Z,32.30
2022-08-11T18:40:50.677Z,32.20
2022-08-11T18:43:39.950Z,32.10
2022-08-11T18:46:28.655Z,32.00
2022-08-11T18:49:20.507Z,31.90
2022-08-11T18:52:11.702Z,31.80
2022-08-11T18:55:04.617Z,31.70
2022-08-11T18:57:55.121Z,31.60
2022-08-11T19:00:42.918Z,31.60
2022-08-11T19:03:30.859Z,31.50
2022-08-11T19:06:39.171Z,31.40
2022-08-11T19:09:28.914Z,31.40
2022-08-11T19:12:16.990Z,31.30
2022-08-11T19:15:04.768Z,31.30
2022-08-11T19:17:54.210Z,31.20
2022-08-11T19:20:43.710Z,31.20
2022-08-11T19:23:36.491Z,31.10
2022-08-11T19:26:23.133Z,31.00
2022-08-11T19:30:02.118Z,31.00
2022-08-11T19:32:18.360Z,30.90
2022-08-11T19:35:04.284Z,30.90
2022-08-11T19:37:52.338Z,30.80
2022-08-11T19:40:40.248Z,30.80
2022-08-11T19:43:26.971Z,30.70
2022-08-11T19:46:17.514Z,30.60
2022-08-11T19:49:04.973Z,30.50
2022-08-11T19:51:53.960Z,30.50
2022-08-11T19:54:42.552Z,30.40
2022-08-11T19:57:28.906Z,30.40
2022-08-11T20:00:15.628Z,30.30
2022-08-11T20:03:08.712Z,30.30
2022-08-11T20:05:59.963Z,30.20
2022-08-11T20:08:48.622Z,30.20
2022-08-11T20:11:36.230Z,30.10
2022-08-11T20:14:23.749Z,30.00
2022-08-11T20:17:12.108Z,30.00
2022-08-11T20:22:49.640Z,29.90
2022-08-11T20:25:37.173Z,29.80
2022-08-11T20:28:25.202Z,29.70
2022-08-11T20:31:13.091Z,29.70
2022-08-11T20:34:00.669Z,29.60
2022-08-11T20:36:54.553Z,29.60
2022-08-11T20:39:43.374Z,29.50
2022-08-11T20:42:31.346Z,29.40
2022-08-11T20:45:23.342Z,29.40
2022-08-11T20:48:14.694Z,29.30
2022-08-11T20:51:06.209Z,29.30
2022-08-11T20:53:56.565Z,29.20
2022-08-11T20:56:46.321Z,29.20
2022-08-11T20:59:33.272Z,29.10
2022-08-11T21:02:31.091Z,29.10
2022-08-11T21:05:19.509Z,29.00
2022-08-11T21:08:25.509Z,29.00
2022-08-11T21:11:14.563Z,28.90
2022-08-11T21:14:16.206Z,28.80
2022-08-11T21:17:27.151Z,28.80
2022-08-11T21:20:21.157Z,28.80
2022-08-11T21:23:12.319Z,28.70
2022-08-11T21:26:16.097Z,28.70
2022-08-11T21:29:02.745Z,28.60
2022-08-11T21:31:51.823Z,28.50
2022-08-11T21:34:39.695Z,28.50
2022-08-11T21:37:27.956Z,28.40
2022-08-11T21:40:17.595Z,28.40
2022-08-11T21:43:07.066Z,28.30
2022-08-11T21:45:55.395Z,28.20
2022-08-11T21:48:43.965Z,28.20
2022-08-11T21:51:30.278Z,28.20
2022-08-11T21:54:16.891Z,28.10
2022-08-11T21:57:04.732Z,28.00
2022-08-11T22:00:00.600Z,28.00
2022-08-11T22:02:53.222Z,27.90
2022-08-11T22:05:40.559Z,27.90
2022-08-11T22:08:28.194Z,27.80
2022-08-11T22:11:15.261Z,27.70
2022-08-11T22:14:08.082Z,27.70
2022-08-11T22:16:55.857Z,27.60
2022-08-11T22:19:43.186Z,27.60
2022-08-11T22:22:31.992Z,27.60
2022-08-11T22:25:18.735Z,27.50
2022-08-11T22:28:06.742Z,27.40
2022-08-11T22:30:52.757Z,27.40
2022-08-11T22:34:02.374Z,27.30
2022-08-11T22:36:46.983Z,27.30
2022-08-11T22:39:35.369Z,27.20
2022-08-11T22:42:30.150Z,27.20
2022-08-11T22:45:19.709Z,27.20
2022-08-11T22:48:06.973Z,27.10
2022-08-11T22:50:55.530Z,27.10
2022-08-11T22:53:58.599Z,27.00
2022-08-11T22:56:46.272Z,27.00
2022-08-11T22:59:33.211Z,26.90
2022-08-11T23:02:20.220Z,26.90
2022-08-11T23:05:07.947Z,26.80
2022-08-11T23:07:57.209Z,26.80
2022-08-11T23:10:43.202Z,26.70
2022-08-11T23:13:29.533Z,26.60
2022-08-11T23:16:15.656Z,26.50
2022-08-11T23:19:03.276Z,26.50
2022-08-11T23:21:50.714Z,26.40
2022-08-11T23:24:40.216Z,26.30
2022-08-11T23:27:28.793Z,26.30
2022-08-11T23:30:18.846Z,26.30
2022-08-11T23:33:07.535Z,26.20
2022-08-11T23:35:55.510Z,26.20
2022-08-11T23:38:45.568Z,26.20
2022-08-11T23:41:34.145Z,26.10
2022-08-11T23:44:21.111Z,26.00
2022-08-11T23:47:08.716Z,25.90
2022-08-11T23:49:56.336Z,25.80
2022-08-11T23:52:45.643Z,25.80
2022-08-11T23:55:32.210Z,25.70
2022-08-11T23:58:19.857Z,25.60
